logo
Search for airport 
image banner adimage banner adimage banner ad
image banner ad

RPMH - Camiguin Principal Airport Class 2

Located in Mambajao, Philippines

ICAO - RPMH, IATA - CGM

Data provided by Airmate  

General information

Coordinates: N9°15'14" E124°42'31"
Elevation is 52 feet MSL.
Magnetic variation is -2° East
View others Airports in Camiguin

Operational data

Special qualification required
Current time UTC:
Current local time:
Weather at : - ( 0 km )
METAR: ZMCK 241830Z 00000MPS 9999 FEW030CB SCT033 01/M04 Q1005 NOSIG RMK QFE639.9 69 NT
View NOTAMs / SUP AIP / TFR affecting this airport [VIEW]
Communications frequencies: [VIEW]

Runways:

RWY identifierQFULength (ft)Width (ft)SurfaceLDA (ft)
0774°386298CONC3862
25254°386298CONC3862

Airport contact information

Address: Mambajao Philippines

Satellite view of RPMH